880GM KTYS-KCHA
Flight info
| Callsign | 880GM |
|---|---|
| Flight time | N/A |
| Altitude | 4000 |
| Route | DCT |
| Aircraft | SR20/L-S/N |
Departure
| Time | 2026-04-28 00:55 |
|---|---|
| Airport | McGhee Tyson Airport (KTYS) |
Arrival
| Time | N/A |
|---|---|
| Airport | Chattanooga Metropolitan Airport (Lovell Field) (KCHA) |
| Time | Latitude | Longitude | Altitude | Speed | Heading |
|---|---|---|---|---|---|
| 2026-04-28 00:42 | 35.81310 | -83.98495 | 951 ft | 0 kts | 60° |
| 2026-04-28 00:50 | 35.81310 | -83.98494 | 951 ft | 0 kts | 59° |
| 2026-04-28 00:50 | 35.81318 | -83.98490 | 951 ft | 3 kts | 359° |
| 2026-04-28 00:50 | 35.81330 | -83.98490 | 951 ft | 2 kts | 357° |
| 2026-04-28 00:50 | 35.81345 | -83.98494 | 952 ft | 3 kts | 342° |
| 2026-04-28 00:51 | 35.81358 | -83.98504 | 953 ft | 0 kts | 342° |
| 2026-04-28 00:51 | 35.81368 | -83.98512 | 953 ft | 4 kts | 320° |
| 2026-04-28 00:51 | 35.81395 | -83.98535 | 955 ft | 6 kts | 2° |
| 2026-04-28 00:51 | 35.81433 | -83.98496 | 954 ft | 10 kts | 41° |
| 2026-04-28 00:52 | 35.81496 | -83.98420 | 952 ft | 11 kts | 47° |
| 2026-04-28 00:52 | 35.81544 | -83.98365 | 951 ft | 9 kts | 44° |
| 2026-04-28 00:52 | 35.81554 | -83.98353 | 951 ft | 0 kts | 47° |
| 2026-04-28 00:53 | 35.81558 | -83.98346 | 950 ft | 3 kts | 41° |
| 2026-04-28 00:53 | 35.81593 | -83.98332 | 950 ft | 8 kts | 356° |
| 2026-04-28 00:53 | 35.81635 | -83.98376 | 953 ft | 7 kts | 279° |
| 2026-04-28 00:53 | 35.81629 | -83.98421 | 955 ft | 0 kts | 221° |
| 2026-04-28 00:54 | 35.81525 | -83.98526 | 957 ft | 52 kts | 229° |
| 2026-04-28 00:54 | 35.81169 | -83.99020 | 995 ft | 94 kts | 225° |
| 2026-04-28 00:54 | 35.80709 | -83.99571 | 1202 ft | 103 kts | 224° |
| 2026-04-28 00:54 | 35.80212 | -84.00238 | 1449 ft | 107 kts | 229° |
| 2026-04-28 00:55 | 35.79779 | -84.00970 | 1726 ft | 107 kts | 239° |
| 2026-04-28 00:55 | 35.79411 | -84.01761 | 1998 ft | 108 kts | 239° |
| 2026-04-28 00:55 | 35.79033 | -84.02564 | 2249 ft | 110 kts | 239° |
| 2026-04-28 00:55 | 35.78592 | -84.03320 | 2509 ft | 110 kts | 236° |
| 2026-04-28 00:56 | 35.78143 | -84.04093 | 2772 ft | 110 kts | 232° |
| 2026-04-28 00:56 | 35.77682 | -84.04838 | 3028 ft | 110 kts | 233° |
| 2026-04-28 00:56 | 35.77232 | -84.05582 | 3302 ft | 109 kts | 233° |
| 2026-04-28 00:56 | 35.76762 | -84.06312 | 3556 ft | 109 kts | 227° |
| 2026-04-28 00:57 | 35.76469 | -84.06759 | 3662 ft | 113 kts | 235° |
| 2026-04-28 00:57 | 35.76145 | -84.07335 | 3785 ft | 118 kts | 232° |
| 2026-04-28 00:58 | 35.75663 | -84.08154 | 3945 ft | 124 kts | 236° |
| 2026-04-28 00:58 | 35.75136 | -84.09069 | 3950 ft | 138 kts | 236° |
| 2026-04-28 00:58 | 35.74588 | -84.10054 | 3954 ft | 142 kts | 236° |
| 2026-04-28 00:58 | 35.74061 | -84.11097 | 3950 ft | 145 kts | 240° |
| 2026-04-28 00:59 | 35.73574 | -84.12179 | 3997 ft | 144 kts | 242° |
| 2026-04-28 00:59 | 35.73031 | -84.13222 | 3979 ft | 148 kts | 233° |
| 2026-04-28 00:59 | 35.72302 | -84.14129 | 3950 ft | 150 kts | 220° |
| 2026-04-28 00:59 | 35.71496 | -84.14960 | 3910 ft | 153 kts | 220° |
| 2026-04-28 01:00 | 35.70740 | -84.15847 | 3959 ft | 149 kts | 228° |
| 2026-04-28 01:00 | 35.70073 | -84.16856 | 3830 ft | 157 kts | 233° |
| 2026-04-28 01:00 | 35.69426 | -84.17905 | 3862 ft | 152 kts | 233° |
| 2026-04-28 01:00 | 35.68751 | -84.18897 | 3902 ft | 148 kts | 229° |
| 2026-04-28 01:01 | 35.68119 | -84.19891 | 3921 ft | 148 kts | 233° |
| 2026-04-28 01:01 | 35.67568 | -84.20953 | 3967 ft | 146 kts | 243° |
| 2026-04-28 01:01 | 35.67172 | -84.22093 | 4004 ft | 145 kts | 250° |
| 2026-04-28 01:01 | 35.66946 | -84.23294 | 4033 ft | 145 kts | 265° |
| 2026-04-28 01:02 | 35.66763 | -84.24511 | 4032 ft | 147 kts | 255° |
| 2026-04-28 01:02 | 35.66330 | -84.25649 | 4046 ft | 147 kts | 240° |
| 2026-04-28 01:02 | 35.65731 | -84.26645 | 4080 ft | 147 kts | 227° |
| 2026-04-28 01:02 | 35.65024 | -84.27563 | 4065 ft | 149 kts | 230° |
| 2026-04-28 01:03 | 35.64417 | -84.28576 | 4112 ft | 146 kts | 231° |
| 2026-04-28 01:03 | 35.63860 | -84.29614 | 4143 ft | 146 kts | 243° |
| 2026-04-28 01:03 | 35.63458 | -84.30745 | 4178 ft | 145 kts | 247° |
| 2026-04-28 01:03 | 35.63072 | -84.31876 | 4206 ft | 144 kts | 239° |
| 2026-04-28 01:04 | 35.62666 | -84.32992 | 4234 ft | 144 kts | 254° |
| 2026-04-28 01:04 | 35.62462 | -84.34191 | 4279 ft | 143 kts | 258° |
| 2026-04-28 01:04 | 35.61996 | -84.35255 | 4196 ft | 152 kts | 223° |
| 2026-04-28 01:04 | 35.61045 | -84.35913 | 4087 ft | 155 kts | 203° |
| 2026-04-28 01:05 | 35.60191 | -84.36650 | 4134 ft | 150 kts | 227° |
| 2026-04-28 01:05 | 35.59533 | -84.37623 | 4178 ft | 147 kts | 235° |
| 2026-04-28 01:05 | 35.59024 | -84.38701 | 4216 ft | 146 kts | 245° |
| 2026-04-28 01:05 | 35.58680 | -84.39866 | 4252 ft | 145 kts | 255° |
| 2026-04-28 01:06 | 35.58482 | -84.41071 | 4285 ft | 145 kts | 263° |
| 2026-04-28 01:06 | 35.58100 | -84.42176 | 4295 ft | 146 kts | 227° |
| 2026-04-28 01:06 | 35.57360 | -84.43047 | 4308 ft | 146 kts | 226° |
| 2026-04-28 01:06 | 35.56789 | -84.44062 | 4338 ft | 145 kts | 246° |
| 2026-04-28 01:07 | 35.56415 | -84.45211 | 4352 ft | 146 kts | 247° |
| 2026-04-28 01:07 | 35.55899 | -84.46283 | 4355 ft | 147 kts | 236° |
| 2026-04-28 01:07 | 35.55405 | -84.47367 | 4394 ft | 146 kts | 248° |
| 2026-04-28 01:07 | 35.55159 | -84.48566 | 4412 ft | 146 kts | 264° |
| 2026-04-28 01:08 | 35.55174 | -84.49802 | 4443 ft | 145 kts | 276° |
| 2026-04-28 01:08 | 35.55349 | -84.51018 | 4524 ft | 141 kts | 282° |
| 2026-04-28 01:08 | 35.55550 | -84.52202 | 4545 ft | 143 kts | 282° |